sensor_id;sensor_type;location;lat;lon;timestamp;temperature;humidity
68439;SHT31;55421;51.600;5.718;2023-05-07T00:01:24;16.25;78.50
68439;SHT31;55421;51.600;5.718;2023-05-07T00:03:50;16.24;78.53
68439;SHT31;55421;51.600;5.718;2023-05-07T00:06:17;16.25;78.60
68439;SHT31;55421;51.600;5.718;2023-05-07T00:08:43;16.25;78.63
68439;SHT31;55421;51.600;5.718;2023-05-07T00:11:10;16.25;78.60
68439;SHT31;55421;51.600;5.718;2023-05-07T00:13:37;16.25;78.62
68439;SHT31;55421;51.600;5.718;2023-05-07T00:16:04;16.24;78.64
68439;SHT31;55421;51.600;5.718;2023-05-07T00:18:31;16.23;78.70
68439;SHT31;55421;51.600;5.718;2023-05-07T00:20:57;16.22;78.63
68439;SHT31;55421;51.600;5.718;2023-05-07T00:23:24;16.21;78.60
68439;SHT31;55421;51.600;5.718;2023-05-07T00:25:50;16.18;78.60
68439;SHT31;55421;51.600;5.718;2023-05-07T00:28:17;16.17;78.60
68439;SHT31;55421;51.600;5.718;2023-05-07T00:30:43;16.17;78.62
68439;SHT31;55421;51.600;5.718;2023-05-07T00:33:10;16.17;78.65
68439;SHT31;55421;51.600;5.718;2023-05-07T00:35:36;16.17;78.67
68439;SHT31;55421;51.600;5.718;2023-05-07T00:38:03;16.17;78.65
68439;SHT31;55421;51.600;5.718;2023-05-07T00:40:30;16.15;78.67
68439;SHT31;55421;51.600;5.718;2023-05-07T00:42:56;16.12;78.75
68439;SHT31;55421;51.600;5.718;2023-05-07T00:45:26;16.11;78.80
68439;SHT31;55421;51.600;5.718;2023-05-07T00:47:55;16.12;78.84
68439;SHT31;55421;51.600;5.718;2023-05-07T00:50:25;16.14;78.87
68439;SHT31;55421;51.600;5.718;2023-05-07T00:52:53;16.14;78.85
68439;SHT31;55421;51.600;5.718;2023-05-07T00:55:21;16.11;78.83
68439;SHT31;55421;51.600;5.718;2023-05-07T00:57:49;16.11;78.91
68439;SHT31;55421;51.600;5.718;2023-05-07T01:00:17;16.11;78.90
68439;SHT31;55421;51.600;5.718;2023-05-07T01:02:45;16.12;78.90
68439;SHT31;55421;51.600;5.718;2023-05-07T01:05:14;16.12;78.90
68439;SHT31;55421;51.600;5.718;2023-05-07T01:07:44;16.15;78.91
68439;SHT31;55421;51.600;5.718;2023-05-07T01:10:12;16.17;78.90
68439;SHT31;55421;51.600;5.718;2023-05-07T01:12:40;16.20;78.89
68439;SHT31;55421;51.600;5.718;2023-05-07T01:15:08;16.23;78.80
68439;SHT31;55421;51.600;5.718;2023-05-07T01:17:36;16.24;78.80
68439;SHT31;55421;51.600;5.718;2023-05-07T01:20:06;16.25;78.80
68439;SHT31;55421;51.600;5.718;2023-05-07T01:22:37;16.24;78.80
68439;SHT31;55421;51.600;5.718;2023-05-07T01:25:05;16.25;78.80
68439;SHT31;55421;51.600;5.718;2023-05-07T01:27:34;16.24;78.80
68439;SHT31;55421;51.600;5.718;2023-05-07T01:30:05;16.23;78.80
68439;SHT31;55421;51.600;5.718;2023-05-07T01:32:35;16.22;78.81
68439;SHT31;55421;51.600;5.718;2023-05-07T01:35:09;16.20;78.82
68439;SHT31;55421;51.600;5.718;2023-05-07T01:37:39;16.18;78.80
68439;SHT31;55421;51.600;5.718;2023-05-07T01:40:07;16.16;78.89
68439;SHT31;55421;51.600;5.718;2023-05-07T01:42:35;16.15;78.98
68439;SHT31;55421;51.600;5.718;2023-05-07T01:45:02;16.13;78.96
68439;SHT31;55421;51.600;5.718;2023-05-07T01:47:30;16.09;78.90
68439;SHT31;55421;51.600;5.718;2023-05-07T01:49:57;16.05;78.94
68439;SHT31;55421;51.600;5.718;2023-05-07T01:52:24;16.00;79.05
68439;SHT31;55421;51.600;5.718;2023-05-07T01:54:51;15.96;79.21
68439;SHT31;55421;51.600;5.718;2023-05-07T01:57:18;15.96;79.31
68439;SHT31;55421;51.600;5.718;2023-05-07T01:59:44;15.96;79.34
68439;SHT31;55421;51.600;5.718;2023-05-07T02:02:11;15.97;79.33
68439;SHT31;55421;51.600;5.718;2023-05-07T02:04:37;15.95;79.33
68439;SHT31;55421;51.600;5.718;2023-05-07T02:07:04;15.91;79.37
68439;SHT31;55421;51.600;5.718;2023-05-07T02:09:30;15.87;79.44
68439;SHT31;55421;51.600;5.718;2023-05-07T02:11:57;15.86;79.60
68439;SHT31;55421;51.600;5.718;2023-05-07T02:14:23;15.86;79.65
68439;SHT31;55421;51.600;5.718;2023-05-07T02:16:50;15.85;79.69
68439;SHT31;55421;51.600;5.718;2023-05-07T02:19:16;15.86;79.80
68439;SHT31;55421;51.600;5.718;2023-05-07T02:21:44;15.88;79.80
68439;SHT31;55421;51.600;5.718;2023-05-07T02:24:10;15.88;79.81
68439;SHT31;55421;51.600;5.718;2023-05-07T02:26:37;15.87;79.88
68439;SHT31;55421;51.600;5.718;2023-05-07T02:29:03;15.86;79.92
68439;SHT31;55421;51.600;5.718;2023-05-07T02:31:30;15.85;79.98
68439;SHT31;55421;51.600;5.718;2023-05-07T02:33:56;15.84;80.00
68439;SHT31;55421;51.600;5.718;2023-05-07T02:36:23;15.82;80.09
68439;SHT31;55421;51.600;5.718;2023-05-07T02:38:49;15.81;80.11
68439;SHT31;55421;51.600;5.718;2023-05-07T02:41:16;15.81;80.11
68439;SHT31;55421;51.600;5.718;2023-05-07T02:43:42;15.82;80.19
68439;SHT31;55421;51.600;5.718;2023-05-07T02:46:09;15.84;80.20
68439;SHT31;55421;51.600;5.718;2023-05-07T02:48:36;15.84;80.20
68439;SHT31;55421;51.600;5.718;2023-05-07T02:51:03;15.84;80.21
68439;SHT31;55421;51.600;5.718;2023-05-07T02:53:31;15.85;80.30
68439;SHT31;55421;51.600;5.718;2023-05-07T02:55:59;15.87;80.28
68439;SHT31;55421;51.600;5.718;2023-05-07T02:58:27;15.89;80.30
68439;SHT31;55421;51.600;5.718;2023-05-07T03:00:54;15.89;80.30
68439;SHT31;55421;51.600;5.718;2023-05-07T03:03:21;15.90;80.30
68439;SHT31;55421;51.600;5.718;2023-05-07T03:05:47;15.92;80.30
68439;SHT31;55421;51.600;5.718;2023-05-07T03:08:14;15.94;80.30
68439;SHT31;55421;51.600;5.718;2023-05-07T03:10:40;15.97;80.26
68439;SHT31;55421;51.600;5.718;2023-05-07T03:13:07;15.98;80.29
68439;SHT31;55421;51.600;5.718;2023-05-07T03:15:33;15.98;80.30
68439;SHT31;55421;51.600;5.718;2023-05-07T03:18:00;15.97;80.27
68439;SHT31;55421;51.600;5.718;2023-05-07T03:20:26;15.96;80.29
68439;SHT31;55421;51.600;5.718;2023-05-07T03:22:52;15.95;80.30
68439;SHT31;55421;51.600;5.718;2023-05-07T03:25:19;15.94;80.34
68439;SHT31;55421;51.600;5.718;2023-05-07T03:27:45;15.93;80.39
68439;SHT31;55421;51.600;5.718;2023-05-07T03:30:12;15.92;80.42
68439;SHT31;55421;51.600;5.718;2023-05-07T03:32:39;15.90;80.49
68439;SHT31;55421;51.600;5.718;2023-05-07T03:35:06;15.90;80.51
68439;SHT31;55421;51.600;5.718;2023-05-07T03:37:33;15.89;80.56
68439;SHT31;55421;51.600;5.718;2023-05-07T03:40:00;15.88;80.60
68439;SHT31;55421;51.600;5.718;2023-05-07T03:42:26;15.85;80.66
68439;SHT31;55421;51.600;5.718;2023-05-07T03:44:54;15.82;80.79
68439;SHT31;55421;51.600;5.718;2023-05-07T03:47:21;15.79;80.72
68439;SHT31;55421;51.600;5.718;2023-05-07T03:49:47;15.75;80.79
68439;SHT31;55421;51.600;5.718;2023-05-07T03:52:15;15.72;80.97
68439;SHT31;55421;51.600;5.718;2023-05-07T03:54:42;15.68;81.03
68439;SHT31;55421;51.600;5.718;2023-05-07T03:57:08;15.65;81.08
68439;SHT31;55421;51.600;5.718;2023-05-07T03:59:35;15.62;81.12
68439;SHT31;55421;51.600;5.718;2023-05-07T04:02:01;15.60;81.20
68439;SHT31;55421;51.600;5.718;2023-05-07T04:04:28;15.56;81.23
68439;SHT31;55421;51.600;5.718;2023-05-07T04:06:58;15.54;81.32
68439;SHT31;55421;51.600;5.718;2023-05-07T04:09:29;15.52;81.40
68439;SHT31;55421;51.600;5.718;2023-05-07T04:11:55;15.53;81.48
68439;SHT31;55421;51.600;5.718;2023-05-07T04:14:22;15.53;81.50
68439;SHT31;55421;51.600;5.718;2023-05-07T04:16:48;15.53;81.51
68439;SHT31;55421;51.600;5.718;2023-05-07T04:19:15;15.54;81.51
68439;SHT31;55421;51.600;5.718;2023-05-07T04:21:41;15.55;81.60
68439;SHT31;55421;51.600;5.718;2023-05-07T04:24:09;15.56;81.60
68439;SHT31;55421;51.600;5.718;2023-05-07T04:26:35;15.58;81.61
68439;SHT31;55421;51.600;5.718;2023-05-07T04:29:02;15.59;81.61
68439;SHT31;55421;51.600;5.718;2023-05-07T04:31:28;15.60;81.60
68439;SHT31;55421;51.600;5.718;2023-05-07T04:33:56;15.61;81.60
68439;SHT31;55421;51.600;5.718;2023-05-07T04:36:23;15.62;81.64
68439;SHT31;55421;51.600;5.718;2023-05-07T04:38:53;15.63;81.61
68439;SHT31;55421;51.600;5.718;2023-05-07T04:41:19;15.62;81.62
68439;SHT31;55421;51.600;5.718;2023-05-07T04:43:46;15.61;81.66
68439;SHT31;55421;51.600;5.718;2023-05-07T04:46:13;15.61;81.70
68439;SHT31;55421;51.600;5.718;2023-05-07T04:48:40;15.60;81.70
68439;SHT31;55421;51.600;5.718;2023-05-07T04:51:06;15.59;81.70
68439;SHT31;55421;51.600;5.718;2023-05-07T04:53:33;15.57;81.70
68439;SHT31;55421;51.600;5.718;2023-05-07T04:56:00;15.57;81.73
68439;SHT31;55421;51.600;5.718;2023-05-07T04:58:26;15.57;81.78
68439;SHT31;55421;51.600;5.718;2023-05-07T05:00:53;15.56;81.80
68439;SHT31;55421;51.600;5.718;2023-05-07T05:03:20;15.58;81.80
68439;SHT31;55421;51.600;5.718;2023-05-07T05:05:46;15.60;81.81
68439;SHT31;55421;51.600;5.718;2023-05-07T05:08:18;15.61;81.86
68439;SHT31;55421;51.600;5.718;2023-05-07T05:10:45;15.62;81.89
68439;SHT31;55421;51.600;5.718;2023-05-07T05:13:11;15.64;81.93
68439;SHT31;55421;51.600;5.718;2023-05-07T05:15:38;15.67;81.91
68439;SHT31;55421;51.600;5.718;2023-05-07T05:18:05;15.69;81.82
68439;SHT31;55421;51.600;5.718;2023-05-07T05:20:31;15.70;81.80
68439;SHT31;55421;51.600;5.718;2023-05-07T05:22:58;15.73;81.80
68439;SHT31;55421;51.600;5.718;2023-05-07T05:25:25;15.78;81.89
68439;SHT31;55421;51.600;5.718;2023-05-07T05:27:51;15.82;81.80
68439;SHT31;55421;51.600;5.718;2023-05-07T05:30:17;15.85;81.78
68439;SHT31;55421;51.600;5.718;2023-05-07T05:32:44;15.90;81.80
68439;SHT31;55421;51.600;5.718;2023-05-07T05:35:11;15.96;81.79
68439;SHT31;55421;51.600;5.718;2023-05-07T05:37:37;16.02;81.79
68439;SHT31;55421;51.600;5.718;2023-05-07T05:40:04;16.08;81.73
68439;SHT31;55421;51.600;5.718;2023-05-07T05:42:31;16.15;81.59
68439;SHT31;55421;51.600;5.718;2023-05-07T05:44:57;16.18;81.50
68439;SHT31;55421;51.600;5.718;2023-05-07T05:47:24;16.21;81.43
68439;SHT31;55421;51.600;5.718;2023-05-07T05:49:50;16.24;81.41
68439;SHT31;55421;51.600;5.718;2023-05-07T05:52:17;16.26;81.39
68439;SHT31;55421;51.600;5.718;2023-05-07T05:54:43;16.29;81.39
68439;SHT31;55421;51.600;5.718;2023-05-07T05:57:10;16.32;81.40
68439;SHT31;55421;51.600;5.718;2023-05-07T05:59:37;16.35;81.37
68439;SHT31;55421;51.600;5.718;2023-05-07T06:02:03;16.37;81.25
68439;SHT31;55421;51.600;5.718;2023-05-07T06:04:30;16.36;81.12
68439;SHT31;55421;51.600;5.718;2023-05-07T06:06:56;16.36;81.16
68439;SHT31;55421;51.600;5.718;2023-05-07T06:09:23;16.39;81.28
68439;SHT31;55421;51.600;5.718;2023-05-07T06:11:49;16.42;81.29
68439;SHT31;55421;51.600;5.718;2023-05-07T06:14:16;16.46;81.21
68439;SHT31;55421;51.600;5.718;2023-05-07T06:16:42;16.50;81.20
68439;SHT31;55421;51.600;5.718;2023-05-07T06:19:09;16.52;81.13
68439;SHT31;55421;51.600;5.718;2023-05-07T06:21:35;16.55;81.10
68439;SHT31;55421;51.600;5.718;2023-05-07T06:24:02;16.58;81.10
68439;SHT31;55421;51.600;5.718;2023-05-07T06:26:28;16.63;81.05
68439;SHT31;55421;51.600;5.718;2023-05-07T06:28:55;16.65;81.04
68439;SHT31;55421;51.600;5.718;2023-05-07T06:31:21;16.71;81.04
68439;SHT31;55421;51.600;5.718;2023-05-07T06:33:48;16.74;80.95
68439;SHT31;55421;51.600;5.718;2023-05-07T06:36:16;16.75;80.86
68439;SHT31;55421;51.600;5.718;2023-05-07T06:38:42;16.79;80.81
68439;SHT31;55421;51.600;5.718;2023-05-07T06:41:08;16.82;80.73
68439;SHT31;55421;51.600;5.718;2023-05-07T06:43:35;16.84;80.60
68439;SHT31;55421;51.600;5.718;2023-05-07T06:46:02;16.87;80.60
68439;SHT31;55421;51.600;5.718;2023-05-07T06:48:28;16.89;80.52
68439;SHT31;55421;51.600;5.718;2023-05-07T06:50:54;16.92;80.41
68439;SHT31;55421;51.600;5.718;2023-05-07T06:53:23;16.95;80.40
68439;SHT31;55421;51.600;5.718;2023-05-07T06:55:50;16.99;80.34
68439;SHT31;55421;51.600;5.718;2023-05-07T06:58:18;17.03;80.22
68439;SHT31;55421;51.600;5.718;2023-05-07T07:00:44;17.07;80.23
68439;SHT31;55421;51.600;5.718;2023-05-07T07:03:11;17.13;80.20
68439;SHT31;55421;51.600;5.718;2023-05-07T07:05:39;17.18;80.06
68439;SHT31;55421;51.600;5.718;2023-05-07T07:08:08;17.21;79.97
68439;SHT31;55421;51.600;5.718;2023-05-07T07:10:35;17.23;79.89
68439;SHT31;55421;51.600;5.718;2023-05-07T07:13:01;17.24;79.84
68439;SHT31;55421;51.600;5.718;2023-05-07T07:15:28;17.23;79.78
68439;SHT31;55421;51.600;5.718;2023-05-07T07:17:55;17.22;79.78
68439;SHT31;55421;51.600;5.718;2023-05-07T07:20:21;17.22;79.73
68439;SHT31;55421;51.600;5.718;2023-05-07T07:22:48;17.22;79.80
68439;SHT31;55421;51.600;5.718;2023-05-07T07:25:14;17.22;79.88
68439;SHT31;55421;51.600;5.718;2023-05-07T07:27:41;17.21;79.80
68439;SHT31;55421;51.600;5.718;2023-05-07T07:30:07;17.20;79.79
68439;SHT31;55421;51.600;5.718;2023-05-07T07:32:34;17.21;79.80
68439;SHT31;55421;51.600;5.718;2023-05-07T07:35:01;17.20;79.75
68439;SHT31;55421;51.600;5.718;2023-05-07T07:37:28;17.19;79.67
68439;SHT31;55421;51.600;5.718;2023-05-07T07:39:55;17.21;79.72
68439;SHT31;55421;51.600;5.718;2023-05-07T07:42:22;17.23;79.80
68439;SHT31;55421;51.600;5.718;2023-05-07T07:44:48;17.25;79.80
68439;SHT31;55421;51.600;5.718;2023-05-07T07:47:15;17.27;79.73
68439;SHT31;55421;51.600;5.718;2023-05-07T07:49:41;17.30;79.70
68439;SHT31;55421;51.600;5.718;2023-05-07T07:52:08;17.33;79.74
68439;SHT31;55421;51.600;5.718;2023-05-07T07:54:35;17.37;79.72
68439;SHT31;55421;51.600;5.718;2023-05-07T07:57:01;17.41;79.67
68439;SHT31;55421;51.600;5.718;2023-05-07T07:59:28;17.46;79.69
68439;SHT31;55421;51.600;5.718;2023-05-07T08:01:54;17.53;79.64
68439;SHT31;55421;51.600;5.718;2023-05-07T08:04:22;17.59;79.50
68439;SHT31;55421;51.600;5.718;2023-05-07T08:06:49;17.65;79.44
68439;SHT31;55421;51.600;5.718;2023-05-07T08:09:16;17.73;79.44
68439;SHT31;55421;51.600;5.718;2023-05-07T08:11:42;17.81;79.30
68439;SHT31;55421;51.600;5.718;2023-05-07T08:14:09;17.91;79.12
68439;SHT31;55421;51.600;5.718;2023-05-07T08:16:35;18.00;79.05
68439;SHT31;55421;51.600;5.718;2023-05-07T08:19:02;18.11;78.83
68439;SHT31;55421;51.600;5.718;2023-05-07T08:21:29;18.20;78.57
68439;SHT31;55421;51.600;5.718;2023-05-07T08:23:56;18.31;78.38
68439;SHT31;55421;51.600;5.718;2023-05-07T08:26:23;18.42;78.30
68439;SHT31;55421;51.600;5.718;2023-05-07T08:28:50;18.52;78.11
68439;SHT31;55421;51.600;5.718;2023-05-07T08:31:16;18.61;77.92
68439;SHT31;55421;51.600;5.718;2023-05-07T08:33:42;18.71;77.74
68439;SHT31;55421;51.600;5.718;2023-05-07T08:36:09;18.88;77.57
68439;SHT31;55421;51.600;5.718;2023-05-07T08:38:35;19.12;77.41
68439;SHT31;55421;51.600;5.718;2023-05-07T08:41:02;19.26;77.03
68439;SHT31;55421;51.600;5.718;2023-05-07T08:43:28;19.37;76.64
68439;SHT31;55421;51.600;5.718;2023-05-07T08:46:00;19.50;76.35
68439;SHT31;55421;51.600;5.718;2023-05-07T08:48:29;19.65;76.46
68439;SHT31;55421;51.600;5.718;2023-05-07T08:50:57;19.77;75.97
68439;SHT31;55421;51.600;5.718;2023-05-07T08:53:25;19.83;75.48
68439;SHT31;55421;51.600;5.718;2023-05-07T08:55:52;19.87;75.33
68439;SHT31;55421;51.600;5.718;2023-05-07T08:58:19;19.91;75.28
68439;SHT31;55421;51.600;5.718;2023-05-07T09:00:47;19.94;75.10
68439;SHT31;55421;51.600;5.718;2023-05-07T09:03:14;20.04;75.13
68439;SHT31;55421;51.600;5.718;2023-05-07T09:05:40;20.18;75.10
68439;SHT31;55421;51.600;5.718;2023-05-07T09:08:07;20.34;74.76
68439;SHT31;55421;51.600;5.718;2023-05-07T09:10:35;20.45;74.54
68439;SHT31;55421;51.600;5.718;2023-05-07T09:13:03;20.54;74.23
68439;SHT31;55421;51.600;5.718;2023-05-07T09:15:30;20.55;73.87
68439;SHT31;55421;51.600;5.718;2023-05-07T09:17:59;20.52;73.61
68439;SHT31;55421;51.600;5.718;2023-05-07T09:20:29;20.50;73.58
68439;SHT31;55421;51.600;5.718;2023-05-07T09:22:56;20.50;73.54
68439;SHT31;55421;51.600;5.718;2023-05-07T09:25:33;20.46;73.52
68439;SHT31;55421;51.600;5.718;2023-05-07T09:28:03;20.44;73.53
68439;SHT31;55421;51.600;5.718;2023-05-07T09:30:31;20.42;73.48
68439;SHT31;55421;51.600;5.718;2023-05-07T09:33:00;20.44;73.63
68439;SHT31;55421;51.600;5.718;2023-05-07T09:35:29;20.45;73.48
68439;SHT31;55421;51.600;5.718;2023-05-07T09:37:57;20.48;73.35
68439;SHT31;55421;51.600;5.718;2023-05-07T09:40:27;20.50;73.12
68439;SHT31;55421;51.600;5.718;2023-05-07T09:42:56;20.54;72.92
68439;SHT31;55421;51.600;5.718;2023-05-07T09:45:36;20.58;72.84
68439;SHT31;55421;51.600;5.718;2023-05-07T09:48:05;20.60;72.93
68439;SHT31;55421;51.600;5.718;2023-05-07T09:50:35;20.66;72.91
68439;SHT31;55421;51.600;5.718;2023-05-07T09:53:10;20.70;72.35
68439;SHT31;55421;51.600;5.718;2023-05-07T09:55:39;20.74;72.25
68439;SHT31;55421;51.600;5.718;2023-05-07T09:58:06;20.80;72.24
68439;SHT31;55421;51.600;5.718;2023-05-07T10:00:34;20.87;72.08
68439;SHT31;55421;51.600;5.718;2023-05-07T10:03:02;20.97;72.06
68439;SHT31;55421;51.600;5.718;2023-05-07T10:05:30;21.02;71.80
68439;SHT31;55421;51.600;5.718;2023-05-07T10:07:57;21.07;71.57
68439;SHT31;55421;51.600;5.718;2023-05-07T10:10:24;21.08;71.43
68439;SHT31;55421;51.600;5.718;2023-05-07T10:12:53;21.13;71.40
68439;SHT31;55421;51.600;5.718;2023-05-07T10:15:20;21.18;71.24
68439;SHT31;55421;51.600;5.718;2023-05-07T10:17:48;21.22;70.96
68439;SHT31;55421;51.600;5.718;2023-05-07T10:20:15;21.24;70.64
68439;SHT31;55421;51.600;5.718;2023-05-07T10:22:43;21.28;70.62
68439;SHT31;55421;51.600;5.718;2023-05-07T10:25:18;21.33;70.58
68439;SHT31;55421;51.600;5.718;2023-05-07T10:27:49;21.38;70.23
68439;SHT31;55421;51.600;5.718;2023-05-07T10:30:39;21.39;69.90
68439;SHT31;55421;51.600;5.718;2023-05-07T10:33:28;21.41;69.86
68439;SHT31;55421;51.600;5.718;2023-05-07T10:35:57;21.41;69.37
68439;SHT31;55421;51.600;5.718;2023-05-07T10:38:27;21.43;69.34
68439;SHT31;55421;51.600;5.718;2023-05-07T10:40:54;21.45;69.46
68439;SHT31;55421;51.600;5.718;2023-05-07T10:43:21;21.50;69.46
68439;SHT31;55421;51.600;5.718;2023-05-07T10:51:35;21.69;69.21
68439;SHT31;55421;51.600;5.718;2023-05-07T10:56:38;21.66;67.93
68439;SHT31;55421;51.600;5.718;2023-05-07T11:01:54;21.69;68.25
68439;SHT31;55421;51.600;5.718;2023-05-07T11:04:25;21.73;68.27
68439;SHT31;55421;51.600;5.718;2023-05-07T11:15:10;21.93;67.72
68439;SHT31;55421;51.600;5.718;2023-05-07T11:17:55;21.96;67.74
68439;SHT31;55421;51.600;5.718;2023-05-07T11:25:59;22.06;65.72
68439;SHT31;55421;51.600;5.718;2023-05-07T11:28:29;22.12;65.44
68439;SHT31;55421;51.600;5.718;2023-05-07T11:30:57;22.18;65.43
68439;SHT31;55421;51.600;5.718;2023-05-07T11:33:24;22.25;65.20
68439;SHT31;55421;51.600;5.718;2023-05-07T11:35:54;22.32;65.25
68439;SHT31;55421;51.600;5.718;2023-05-07T11:38:22;22.41;64.76
68439;SHT31;55421;51.600;5.718;2023-05-07T11:40:52;22.53;64.81
68439;SHT31;55421;51.600;5.718;2023-05-07T11:43:22;22.67;64.68
68439;SHT31;55421;51.600;5.718;2023-05-07T11:45:50;22.77;64.20
68439;SHT31;55421;51.600;5.718;2023-05-07T11:48:17;22.80;63.70
68439;SHT31;55421;51.600;5.718;2023-05-07T11:53:25;22.95;63.81
68439;SHT31;55421;51.600;5.718;2023-05-07T11:55:56;23.01;63.65
68439;SHT31;55421;51.600;5.718;2023-05-07T11:58:24;23.06;63.45
68439;SHT31;55421;51.600;5.718;2023-05-07T12:00:54;23.10;63.49
68439;SHT31;55421;51.600;5.718;2023-05-07T12:03:20;23.14;63.55
68439;SHT31;55421;51.600;5.718;2023-05-07T12:05:47;23.11;63.22
68439;SHT31;55421;51.600;5.718;2023-05-07T12:08:14;23.08;63.51
68439;SHT31;55421;51.600;5.718;2023-05-07T12:10:42;23.07;63.28
68439;SHT31;55421;51.600;5.718;2023-05-07T12:13:21;23.08;63.18
68439;SHT31;55421;51.600;5.718;2023-05-07T12:15:51;23.07;63.07
68439;SHT31;55421;51.600;5.718;2023-05-07T12:18:18;23.04;63.03
68439;SHT31;55421;51.600;5.718;2023-05-07T12:20:46;22.99;62.57
68439;SHT31;55421;51.600;5.718;2023-05-07T12:23:14;22.93;62.39
68439;SHT31;55421;51.600;5.718;2023-05-07T12:25:42;22.87;62.21
68439;SHT31;55421;51.600;5.718;2023-05-07T12:28:16;22.80;62.12
68439;SHT31;55421;51.600;5.718;2023-05-07T12:30:46;22.73;62.01
68439;SHT31;55421;51.600;5.718;2023-05-07T12:33:17;22.65;62.12
68439;SHT31;55421;51.600;5.718;2023-05-07T12:35:49;22.58;62.34
68439;SHT31;55421;51.600;5.718;2023-05-07T12:38:17;22.50;62.26
68439;SHT31;55421;51.600;5.718;2023-05-07T12:40:45;22.42;62.45
68439;SHT31;55421;51.600;5.718;2023-05-07T12:43:17;22.33;62.61
68439;SHT31;55421;51.600;5.718;2023-05-07T12:45:50;22.24;62.64
68439;SHT31;55421;51.600;5.718;2023-05-07T12:48:20;22.15;62.94
68439;SHT31;55421;51.600;5.718;2023-05-07T12:50:51;22.08;63.44
68439;SHT31;55421;51.600;5.718;2023-05-07T12:53:20;22.00;63.79
68439;SHT31;55421;51.600;5.718;2023-05-07T12:55:49;21.92;63.77
68439;SHT31;55421;51.600;5.718;2023-05-07T12:58:24;21.83;63.95
68439;SHT31;55421;51.600;5.718;2023-05-07T13:01:04;21.75;64.26
68439;SHT31;55421;51.600;5.718;2023-05-07T13:03:36;21.67;64.28
68439;SHT31;55421;51.600;5.718;2023-05-07T13:06:08;21.63;64.89
68439;SHT31;55421;51.600;5.718;2023-05-07T13:08:36;21.57;65.10
68439;SHT31;55421;51.600;5.718;2023-05-07T13:11:11;21.51;65.19
68439;SHT31;55421;51.600;5.718;2023-05-07T13:13:39;21.45;65.43
68439;SHT31;55421;51.600;5.718;2023-05-07T13:16:07;21.39;65.43
68439;SHT31;55421;51.600;5.718;2023-05-07T13:18:37;21.36;65.84
68439;SHT31;55421;51.600;5.718;2023-05-07T13:21:05;21.33;66.09
68439;SHT31;55421;51.600;5.718;2023-05-07T13:23:32;21.32;66.25
68439;SHT31;55421;51.600;5.718;2023-05-07T13:25:58;21.31;66.63
68439;SHT31;55421;51.600;5.718;2023-05-07T13:28:25;21.27;67.47
68439;SHT31;55421;51.600;5.718;2023-05-07T13:30:52;21.23;68.20
68439;SHT31;55421;51.600;5.718;2023-05-07T13:33:20;21.11;66.35
68439;SHT31;55421;51.600;5.718;2023-05-07T13:35:47;20.83;64.38
68439;SHT31;55421;51.600;5.718;2023-05-07T13:38:13;20.51;64.62
68439;SHT31;55421;51.600;5.718;2023-05-07T13:40:42;20.19;64.55
68439;SHT31;55421;51.600;5.718;2023-05-07T13:43:08;19.89;65.10
68439;SHT31;55421;51.600;5.718;2023-05-07T13:45:35;19.63;65.79
68439;SHT31;55421;51.600;5.718;2023-05-07T13:48:01;19.42;66.49
68439;SHT31;55421;51.600;5.718;2023-05-07T13:50:28;19.21;67.03
68439;SHT31;55421;51.600;5.718;2023-05-07T13:52:55;19.03;67.82
68439;SHT31;55421;51.600;5.718;2023-05-07T13:55:23;18.88;68.32
68439;SHT31;55421;51.600;5.718;2023-05-07T13:57:58;18.76;69.13
68439;SHT31;55421;51.600;5.718;2023-05-07T14:00:27;18.65;69.79
68439;SHT31;55421;51.600;5.718;2023-05-07T14:02:55;18.55;70.10
68439;SHT31;55421;51.600;5.718;2023-05-07T14:05:22;18.43;70.36
68439;SHT31;55421;51.600;5.718;2023-05-07T14:07:51;18.33;70.83
68439;SHT31;55421;51.600;5.718;2023-05-07T14:10:18;18.24;71.22
68439;SHT31;55421;51.600;5.718;2023-05-07T14:12:45;18.15;71.66
68439;SHT31;55421;51.600;5.718;2023-05-07T14:15:13;18.08;72.04
68439;SHT31;55421;51.600;5.718;2023-05-07T14:17:41;18.02;72.27
68439;SHT31;55421;51.600;5.718;2023-05-07T14:20:09;17.97;72.56
68439;SHT31;55421;51.600;5.718;2023-05-07T14:22:36;17.95;72.85
68439;SHT31;55421;51.600;5.718;2023-05-07T14:25:03;17.96;73.09
68439;SHT31;55421;51.600;5.718;2023-05-07T14:27:30;17.96;73.29
68439;SHT31;55421;51.600;5.718;2023-05-07T14:29:57;17.98;73.60
68439;SHT31;55421;51.600;5.718;2023-05-07T14:32:23;18.02;73.78
68439;SHT31;55421;51.600;5.718;2023-05-07T14:34:50;18.02;73.81
68439;SHT31;55421;51.600;5.718;2023-05-07T14:37:16;18.03;73.90
68439;SHT31;55421;51.600;5.718;2023-05-07T14:39:45;18.06;73.96
68439;SHT31;55421;51.600;5.718;2023-05-07T14:42:12;18.05;73.83
68439;SHT31;55421;51.600;5.718;2023-05-07T14:44:38;18.02;74.24
68439;SHT31;55421;51.600;5.718;2023-05-07T14:47:07;18.04;74.51
68439;SHT31;55421;51.600;5.718;2023-05-07T14:49:34;18.07;74.73
68439;SHT31;55421;51.600;5.718;2023-05-07T14:52:00;18.09;74.98
68439;SHT31;55421;51.600;5.718;2023-05-07T14:54:27;18.15;75.12
68439;SHT31;55421;51.600;5.718;2023-05-07T14:56:54;18.18;75.24
68439;SHT31;55421;51.600;5.718;2023-05-07T14:59:21;18.20;75.41
68439;SHT31;55421;51.600;5.718;2023-05-07T15:01:48;18.25;75.26
68439;SHT31;55421;51.600;5.718;2023-05-07T15:04:14;18.25;75.14
68439;SHT31;55421;51.600;5.718;2023-05-07T15:06:41;18.26;75.10
68439;SHT31;55421;51.600;5.718;2023-05-07T15:09:08;18.28;75.00
68439;SHT31;55421;51.600;5.718;2023-05-07T15:11:35;18.31;75.11
68439;SHT31;55421;51.600;5.718;2023-05-07T15:14:01;18.32;75.28
68439;SHT31;55421;51.600;5.718;2023-05-07T15:16:28;18.31;75.36
68439;SHT31;55421;51.600;5.718;2023-05-07T15:18:56;18.25;75.49
68439;SHT31;55421;51.600;5.718;2023-05-07T15:21:22;18.21;75.58
68439;SHT31;55421;51.600;5.718;2023-05-07T15:23:49;18.17;75.76
68439;SHT31;55421;51.600;5.718;2023-05-07T15:26:15;18.20;76.14
68439;SHT31;55421;51.600;5.718;2023-05-07T15:28:42;18.24;76.06
68439;SHT31;55421;51.600;5.718;2023-05-07T15:31:09;18.27;75.97
68439;SHT31;55421;51.600;5.718;2023-05-07T15:33:35;18.32;75.89
68439;SHT31;55421;51.600;5.718;2023-05-07T15:36:02;18.38;75.73
68439;SHT31;55421;51.600;5.718;2023-05-07T15:38:30;18.43;75.60
68439;SHT31;55421;51.600;5.718;2023-05-07T15:40:56;18.44;75.54
68439;SHT31;55421;51.600;5.718;2023-05-07T15:43:23;18.48;75.56
68439;SHT31;55421;51.600;5.718;2023-05-07T15:45:50;18.51;75.50
68439;SHT31;55421;51.600;5.718;2023-05-07T15:48:17;18.54;75.43
68439;SHT31;55421;51.600;5.718;2023-05-07T15:50:43;18.54;75.55
68439;SHT31;55421;51.600;5.718;2023-05-07T15:53:10;18.57;75.89
68439;SHT31;55421;51.600;5.718;2023-05-07T15:55:39;18.60;75.78
68439;SHT31;55421;51.600;5.718;2023-05-07T15:58:09;18.62;75.79
68439;SHT31;55421;51.600;5.718;2023-05-07T16:00:35;18.65;75.42